Time,TemperatureF,DewpointF,PressureIn,WindDirection,WindDirectionDegrees,WindSpeedMPH,WindSpeedGustMPH,Humidity,HourlyPrecipIn,Conditions,Clouds,dailyrainin,SoftwareType,DateUTC
2013-05-25 00:04:00,38.8,31.8,30.00,WNW,293,0.0,5.3,76,0.00,,,0.00,WUHU216HW,2013-05-25 06:04:00,
2013-05-25 00:09:00,39.0,32.0,30.00,WNW,293,3.8,3.8,76,0.00,,,0.00,WUHU216HW,2013-05-25 06:09:00,
2013-05-25 00:14:00,39.2,32.2,29.99,WNW,293,4.2,4.2,76,0.00,,,0.00,WUHU216HW,2013-05-25 06:14:00,
2013-05-25 00:19:00,39.3,32.0,29.99,West,270,2.2,4.2,75,0.00,,,0.00,WUHU216HW,2013-05-25 06:19:00,
2013-05-25 00:24:00,39.3,32.0,29.99,NNW,338,4.0,4.0,75,0.00,,,0.00,WUHU216HW,2013-05-25 06:24:00,
2013-05-25 00:30:00,39.5,32.2,29.99,WNW,293,0.0,4.0,75,0.00,,,0.00,WUHU216HW,2013-05-25 06:30:00,
2013-05-25 00:35:00,39.7,32.4,30.00,WNW,293,0.0,2.6,75,0.00,,,0.00,WUHU216HW,2013-05-25 06:35:00,
2013-05-25 00:40:00,39.7,32.4,29.99,West,270,1.3,3.1,75,0.00,,,0.00,WUHU216HW,2013-05-25 06:40:00,
2013-05-25 00:45:00,39.7,32.4,29.99,WNW,293,2.0,3.3,75,0.00,,,0.00,WUHU216HW,2013-05-25 06:45:00,
2013-05-25 00:50:00,39.5,32.2,30.00,WNW,293,0.0,3.3,75,0.00,,,0.00,WUHU216HW,2013-05-25 06:50:00,
2013-05-25 00:55:00,39.3,32.0,29.99,West,270,1.7,2.4,75,0.00,,,0.00,WUHU216HW,2013-05-25 06:55:00,
2013-05-25 01:00:00,39.3,32.0,29.99,WNW,293,2.0,2.2,75,0.00,,,0.00,WUHU216HW,2013-05-25 07:00:00,
2013-05-25 01:05:00,39.0,32.0,29.99,West,270,1.7,2.2,76,0.00,,,0.00,WUHU216HW,2013-05-25 07:05:00,
2013-05-25 01:10:00,39.0,32.0,29.99,WNW,293,1.3,2.4,76,0.00,,,0.00,WUHU216HW,2013-05-25 07:10:00,
2013-05-25 01:15:00,39.0,32.0,29.99,West,270,1.7,2.6,76,0.00,,,0.00,WUHU216HW,2013-05-25 07:15:00,
2013-05-25 01:20:00,38.8,31.8,29.99,West,270,3.1,3.1,76,0.00,,,0.00,WUHU216HW,2013-05-25 07:20:00,
2013-05-25 01:25:00,38.4,31.2,29.99,West,270,0.8,4.6,75,0.00,,,0.00,WUHU216HW,2013-05-25 07:25:00,
2013-05-25 01:30:00,38.3,31.0,29.99,West,270,2.0,6.0,75,0.00,,,0.00,WUHU216HW,2013-05-25 07:30:00,
2013-05-25 01:35:00,38.1,31.2,29.98,West,270,3.5,6.0,76,0.00,,,0.00,WUHU216HW,2013-05-25 07:35:00,
2013-05-25 01:40:00,37.9,31.0,29.99,West,270,2.9,4.9,76,0.00,,,0.00,WUHU216HW,2013-05-25 07:40:00,
2013-05-25 01:46:00,38.1,31.2,29.99,West,270,10.5,10.5,76,0.00,,,0.00,WUHU216HW,2013-05-25 07:46:00,
2013-05-25 01:51:00,38.3,31.0,29.99,West,270,0.0,10.5,75,0.00,,,0.00,WUHU216HW,2013-05-25 07:51:00,
2013-05-25 01:56:00,38.4,31.2,29.99,West,270,2.6,5.1,75,0.00,,,0.00,WUHU216HW,2013-05-25 07:56:00,
2013-05-25 02:01:00,38.4,30.8,29.99,West,270,2.2,5.8,74,0.00,,,0.00,WUHU216HW,2013-05-25 08:01:00,
2013-05-25 02:06:00,38.4,30.8,29.98,WNW,293,1.5,7.3,74,0.00,,,0.00,WUHU216HW,2013-05-25 08:06:00,
2013-05-25 02:11:00,38.3,30.7,29.98,WNW,293,2.2,7.3,74,0.00,,,0.00,WUHU216HW,2013-05-25 08:11:00,
2013-05-25 02:16:00,38.4,30.8,29.99,West,270,7.1,7.1,74,0.00,,,0.00,WUHU216HW,2013-05-25 08:16:00,
2013-05-25 02:21:00,38.8,31.2,29.98,West,270,3.3,7.1,74,0.00,,,0.00,WUHU216HW,2013-05-25 08:21:00,
2013-05-25 02:26:00,39.0,31.0,29.99,West,270,2.4,8.2,73,0.00,,,0.00,WUHU216HW,2013-05-25 08:26:00,
2013-05-25 02:31:00,39.0,30.7,29.99,West,270,0.0,8.2,72,0.00,,,0.00,WUHU216HW,2013-05-25 08:31:00,
2013-05-25 02:36:00,39.3,31.0,29.99,West,270,2.0,5.3,72,0.00,,,0.00,WUHU216HW,2013-05-25 08:36:00,
2013-05-25 02:41:00,39.0,30.7,29.99,WNW,293,0.0,2.4,72,0.00,,,0.00,WUHU216HW,2013-05-25 08:41:00,
2013-05-25 02:46:00,38.4,31.2,29.98,WNW,293,1.1,1.3,75,0.00,,,0.00,WUHU216HW,2013-05-25 08:46:00,
2013-05-25 02:51:00,37.9,30.7,29.99,WNW,293,0.0,1.3,75,0.00,,,0.00,WUHU216HW,2013-05-25 08:51:00,
2013-05-25 02:56:00,37.5,30.3,29.98,WNW,293,0.0,1.1,75,0.00,,,0.00,WUHU216HW,2013-05-25 08:56:00,
2013-05-25 03:01:00,37.5,30.3,29.99,WNW,293,1.7,2.0,75,0.00,,,0.00,WUHU216HW,2013-05-25 09:01:00,
2013-05-25 03:06:00,37.5,30.6,29.99,West,270,2.0,7.8,76,0.00,,,0.00,WUHU216HW,2013-05-25 09:06:00,
2013-05-25 03:11:00,37.5,30.6,29.99,West,270,0.8,7.8,76,0.00,,,0.00,WUHU216HW,2013-05-25 09:11:00,
2013-05-25 03:17:00,37.7,30.8,29.99,WSW,248,7.3,7.3,76,0.00,,,0.00,WUHU216HW,2013-05-25 09:17:00,
2013-05-25 03:22:00,37.7,30.5,29.98,West,270,0.0,7.3,75,0.00,,,0.00,WUHU216HW,2013-05-25 09:22:00,
2013-05-25 03:27:00,37.9,30.7,29.98,West,270,2.6,4.6,75,0.00,,,0.00,WUHU216HW,2013-05-25 09:27:00,
2013-05-25 03:32:00,38.1,30.8,29.99,West,270,3.1,4.6,75,0.00,,,0.00,WUHU216HW,2013-05-25 09:32:00,
2013-05-25 03:37:00,38.1,30.8,29.99,West,270,3.3,5.1,75,0.00,,,0.00,WUHU216HW,2013-05-25 09:37:00,
2013-05-25 03:42:00,38.1,30.5,29.99,WSW,248,5.3,5.3,74,0.00,,,0.00,WUHU216HW,2013-05-25 09:42:00,
2013-05-25 03:47:00,38.3,30.7,29.99,West,270,2.6,5.3,74,0.00,,,0.00,WUHU216HW,2013-05-25 09:47:00,
2013-05-25 03:52:00,38.4,30.8,29.99,West,270,2.6,5.3,74,0.00,,,0.00,WUHU216HW,2013-05-25 09:52:00,
2013-05-25 03:57:00,38.4,30.8,29.99,West,270,0.0,2.6,74,0.00,,,0.00,WUHU216HW,2013-05-25 09:57:00,
2013-05-25 04:03:00,38.1,30.5,29.99,West,270,0.0,2.4,74,0.00,,,0.00,WUHU216HW,2013-05-25 10:03:00,
2013-05-25 04:07:00,37.5,30.0,29.99,West,270,2.9,3.8,74,0.00,,,0.00,WUHU216HW,2013-05-25 10:07:00,
2013-05-25 04:12:00,37.2,30.0,29.99,West,270,4.2,4.2,75,0.00,,,0.00,WUHU216HW,2013-05-25 10:12:00,
2013-05-25 04:18:00,37.0,29.8,29.99,WSW,248,5.8,5.8,75,0.00,,,0.00,WUHU216HW,2013-05-25 10:18:00,
2013-05-25 04:23:00,37.2,30.0,29.99,WSW,248,2.9,7.3,75,0.00,,,0.00,WUHU216HW,2013-05-25 10:23:00,
2013-05-25 04:28:00,37.7,30.5,29.99,West,270,4.0,7.3,75,0.00,,,0.00,WUHU216HW,2013-05-25 10:28:00,
2013-05-25 04:33:00,37.2,30.0,29.99,WSW,248,0.0,5.1,75,0.00,,,0.00,WUHU216HW,2013-05-25 10:33:00,
2013-05-25 04:38:00,36.8,29.9,29.99,West,270,0.0,5.1,76,0.00,,,0.00,WUHU216HW,2013-05-25 10:38:00,
2013-05-25 04:43:00,36.6,30.1,29.99,WNW,293,0.0,0.0,77,0.00,,,0.00,WUHU216HW,2013-05-25 10:43:00,
2013-05-25 04:48:00,36.6,30.2,29.99,WNW,293,0.0,0.0,78,0.00,,,0.00,WUHU216HW,2013-05-25 10:48:00,
2013-05-25 04:53:00,36.6,30.4,29.99,NW,315,0.0,1.7,78,0.00,,,0.00,WUHU216HW,2013-05-25 10:53:00,
2013-05-25 04:58:00,36.3,30.0,29.99,North,0,0.0,1.7,78,0.00,,,0.00,WUHU216HW,2013-05-25 10:58:00,
2013-05-25 05:03:00,36.1,29.9,29.99,West,270,0.0,0.8,78,0.00,,,0.00,WUHU216HW,2013-05-25 11:03:00,
2013-05-25 05:08:00,36.1,29.9,29.99,West,270,0.0,5.8,78,0.00,,,0.00,WUHU216HW,2013-05-25 11:08:00,
2013-05-25 05:13:00,35.9,29.7,29.99,WNW,293,0.0,5.8,78,0.00,,,0.00,WUHU216HW,2013-05-25 11:13:00,
2013-05-25 05:18:00,34.8,29.3,29.99,WNW,293,0.0,0.0,80,0.00,,,0.00,WUHU216HW,2013-05-25 11:18:00,
2013-05-25 05:23:00,34.5,29.2,29.99,NE,45,3.1,3.1,81,0.00,,,0.00,WUHU216HW,2013-05-25 11:23:00,
2013-05-25 05:28:00,34.3,29.0,30.00,ENE,68,1.7,3.1,81,0.00,,,0.00,WUHU216HW,2013-05-25 11:28:00,
2013-05-25 05:33:00,34.8,29.8,29.99,ENE,68,0.0,2.9,82,0.00,,,0.00,WUHU216HW,2013-05-25 11:33:00,
2013-05-25 05:38:00,35.2,29.9,29.99,ENE,68,0.0,0.0,81,0.00,,,0.00,WUHU216HW,2013-05-25 11:38:00,
2013-05-25 05:44:00,35.4,29.8,29.99,ENE,68,0.0,0.0,80,0.00,,,0.00,WUHU216HW,2013-05-25 11:44:00,
2013-05-25 05:48:00,36.3,30.7,29.99,ENE,68,0.0,0.0,80,0.00,,,0.00,WUHU216HW,2013-05-25 11:48:00,
2013-05-25 05:53:00,36.1,30.2,30.00,ENE,68,0.0,0.0,79,0.00,,,0.00,WUHU216HW,2013-05-25 11:53:00,
2013-05-25 05:59:00,36.3,30.4,30.00,ENE,68,0.0,1.7,79,0.00,,,0.00,WUHU216HW,2013-05-25 11:59:00,
2013-05-25 06:04:00,36.3,30.4,30.00,ENE,68,0.0,1.7,79,0.00,,,0.00,WUHU216HW,2013-05-25 12:04:00,
2013-05-25 06:09:00,36.5,30.5,30.00,ENE,68,0.0,0.0,79,0.00,,,0.00,WUHU216HW,2013-05-25 12:09:00,
2013-05-25 06:14:00,36.5,30.5,30.00,East,90,2.4,2.4,79,0.00,,,0.00,WUHU216HW,2013-05-25 12:14:00,
2013-05-25 06:19:00,36.6,30.7,30.00,East,90,0.0,2.9,79,0.00,,,0.00,WUHU216HW,2013-05-25 12:19:00,
2013-05-25 06:24:00,36.8,31.2,30.00,East,90,2.4,2.9,80,0.00,,,0.00,WUHU216HW,2013-05-25 12:24:00,
2013-05-25 06:29:00,37.2,31.3,30.00,ESE,113,0.0,2.9,79,0.00,,,0.00,WUHU216HW,2013-05-25 12:29:00,
2013-05-25 06:34:00,37.2,31.3,30.00,ESE,113,0.0,2.9,79,0.00,,,0.00,WUHU216HW,2013-05-25 12:34:00,
2013-05-25 06:39:00,37.4,31.4,30.00,ESE,113,0.0,0.0,79,0.00,,,0.00,WUHU216HW,2013-05-25 12:39:00,
2013-05-25 06:44:00,37.5,31.6,30.00,ESE,113,0.0,0.0,79,0.00,,,0.00,WUHU216HW,2013-05-25 12:44:00,
2013-05-25 06:49:00,37.5,31.6,30.00,ESE,113,2.0,2.0,79,0.00,,,0.00,WUHU216HW,2013-05-25 12:49:00,
2013-05-25 06:54:00,37.7,31.8,30.00,ESE,113,0.0,2.0,79,0.00,,,0.00,WUHU216HW,2013-05-25 12:54:00,
2013-05-25 06:59:00,38.1,32.0,30.00,East,90,0.0,2.0,79,0.00,,,0.00,WUHU216HW,2013-05-25 12:59:00,
2013-05-25 07:04:00,38.3,32.3,30.01,East,90,0.0,2.0,79,0.00,,,0.00,WUHU216HW,2013-05-25 13:04:00,
2013-05-25 07:09:00,38.8,32.9,30.01,East,90,0.0,0.0,79,0.00,,,0.00,WUHU216HW,2013-05-25 13:09:00,
2013-05-25 07:14:00,39.0,32.4,30.01,East,90,0.0,0.0,77,0.00,,,0.00,WUHU216HW,2013-05-25 13:14:00,
2013-05-25 07:19:00,39.3,33.0,30.01,East,90,0.0,0.0,78,0.00,,,0.00,WUHU216HW,2013-05-25 13:19:00,
2013-05-25 07:25:00,39.7,33.0,30.01,East,90,0.0,0.0,77,0.00,,,0.00,WUHU216HW,2013-05-25 13:25:00,
2013-05-25 07:30:00,39.9,33.2,30.01,East,90,0.0,0.0,77,0.00,,,0.00,WUHU216HW,2013-05-25 13:30:00,
2013-05-25 07:35:00,39.9,32.9,30.01,East,90,0.0,0.0,76,0.00,,,0.00,WUHU216HW,2013-05-25 13:35:00,
2013-05-25 07:40:00,40.2,33.2,30.02,East,90,0.0,0.0,76,0.00,,,0.00,WUHU216HW,2013-05-25 13:40:00,
2013-05-25 07:45:00,40.8,33.7,30.02,East,90,0.0,0.0,76,0.00,,,0.00,WUHU216HW,2013-05-25 13:45:00,
2013-05-25 07:50:00,41.1,33.8,30.01,East,90,0.0,0.0,75,0.00,,,0.00,WUHU216HW,2013-05-25 13:50:00,
2013-05-25 07:55:00,41.1,34.1,30.01,East,90,0.0,0.0,75,0.00,,,0.00,WUHU216HW,2013-05-25 13:55:00,
2013-05-25 08:00:00,41.5,34.1,30.01,NNW,338,0.0,0.0,75,0.00,,,0.00,WUHU216HW,2013-05-25 14:00:00,
2013-05-25 08:05:00,42.6,34.9,30.01,WNW,293,0.0,0.0,74,0.00,,,0.00,WUHU216HW,2013-05-25 14:05:00,
2013-05-25 08:10:00,43.3,35.2,30.01,NW,315,1.3,1.3,73,0.00,,,0.00,WUHU216HW,2013-05-25 14:10:00,
2013-05-25 08:15:00,43.5,35.0,30.01,NW,315,0.0,2.9,72,0.00,,,0.00,WUHU216HW,2013-05-25 14:15:00,
2013-05-25 08:20:00,44.0,35.2,30.01,NW,315,0.0,2.9,71,0.00,,,0.00,WUHU216HW,2013-05-25 14:20:00,
2013-05-25 08:25:00,44.4,35.2,30.01,North,0,2.2,2.2,70,0.00,,,0.00,WUHU216HW,2013-05-25 14:25:00,
2013-05-25 08:31:00,45.1,35.1,30.01,NNW,338,0.0,2.9,68,0.00,,,0.00,WUHU216HW,2013-05-25 14:31:00,
2013-05-25 08:35:00,47.3,35.7,30.01,WNW,293,1.1,2.9,64,0.00,,,0.00,WUHU216HW,2013-05-25 14:35:00,
2013-05-25 08:40:00,50.1,36.3,30.00,West,270,3.8,3.8,59,0.00,,,0.00,WUHU216HW,2013-05-25 14:40:00,
2013-05-25 08:46:00,54.1,37.3,30.00,West,270,0.0,7.3,53,0.00,,,0.00,WUHU216HW,2013-05-25 14:46:00,
2013-05-25 08:51:00,56.8,37.5,30.00,NW,315,3.1,7.3,49,0.00,,,0.00,WUHU216HW,2013-05-25 14:51:00,
2013-05-25 08:56:00,58.8,38.5,30.00,WSW,248,0.0,7.6,47,0.00,,,0.00,WUHU216HW,2013-05-25 14:56:00,
2013-05-25 09:01:00,60.9,37.6,30.00,West,270,4.4,7.6,42,0.00,,,0.00,WUHU216HW,2013-05-25 15:01:00,
2013-05-25 09:06:00,57.0,35.7,30.00,West,270,4.9,6.7,45,0.00,,,0.00,WUHU216HW,2013-05-25 15:06:00,
2013-05-25 09:11:00,60.6,37.3,30.00,West,270,2.4,4.9,42,0.00,,,0.00,WUHU216HW,2013-05-25 15:11:00,
2013-05-25 09:16:00,63.5,39.8,30.00,North,0,0.0,7.3,40,0.00,,,0.00,WUHU216HW,2013-05-25 15:16:00,
2013-05-25 09:21:00,64.7,38.4,30.00,WNW,293,2.2,7.3,38,0.00,,,0.00,WUHU216HW,2013-05-25 15:21:00,
2013-05-25 09:27:00,60.9,37.6,30.00,NW,315,3.5,5.8,42,0.00,,,0.00,WUHU216HW,2013-05-25 15:27:00,
2013-05-25 09:31:00,62.2,38.1,30.00,WNW,293,0.0,5.8,41,0.00,,,0.00,WUHU216HW,2013-05-25 15:31:00,
2013-05-25 09:37:00,62.7,38.1,30.00,WNW,293,0.8,4.4,40,0.00,,,0.00,WUHU216HW,2013-05-25 15:37:00,
2013-05-25 09:42:00,59.3,36.9,30.01,NW,315,5.8,5.8,43,0.00,,,0.00,WUHU216HW,2013-05-25 15:42:00,
2013-05-25 09:47:00,60.6,35.6,30.01,NW,315,3.8,5.8,40,0.00,,,0.00,WUHU216HW,2013-05-25 15:47:00,
2013-05-25 09:52:00,61.5,37.2,30.01,NNW,338,2.9,8.5,39,0.00,,,0.00,WUHU216HW,2013-05-25 15:52:00,
2013-05-25 09:57:00,56.6,33.1,30.01,West,270,0.0,8.5,41,0.00,,,0.00,WUHU216HW,2013-05-25 15:57:00,
2013-05-25 10:02:00,53.4,31.9,30.01,West,270,2.6,6.7,44,0.00,,,0.00,WUHU216HW,2013-05-25 16:02:00,
2013-05-25 10:07:00,50.9,32.0,30.01,NW,315,2.0,6.7,48,0.00,,,0.00,WUHU216HW,2013-05-25 16:07:00,
2013-05-25 10:12:00,50.1,31.7,30.01,West,270,3.1,5.8,50,0.00,,,0.00,WUHU216HW,2013-05-25 16:12:00,
2013-05-25 10:17:00,50.3,32.5,30.00,West,270,0.0,5.8,50,0.00,,,0.00,WUHU216HW,2013-05-25 16:17:00,
2013-05-25 10:22:00,49.6,32.7,30.00,West,270,5.1,5.1,52,0.00,,,0.00,WUHU216HW,2013-05-25 16:22:00,
2013-05-25 10:27:00,49.8,32.4,30.00,NW,315,0.0,5.1,51,0.00,,,0.00,WUHU216HW,2013-05-25 16:27:00,
2013-05-25 10:32:00,49.6,32.7,30.00,West,270,0.0,4.2,52,0.00,,,0.00,WUHU216HW,2013-05-25 16:32:00,
2013-05-25 10:37:00,48.9,32.0,30.00,NW,315,0.0,5.8,52,0.00,,,0.00,WUHU216HW,2013-05-25 16:37:00,
2013-05-25 10:42:00,50.5,33.1,30.00,West,270,0.0,5.8,51,0.00,,,0.00,WUHU216HW,2013-05-25 16:42:00,
2013-05-25 10:47:00,51.9,34.4,30.00,West,270,0.0,3.1,51,0.00,,,0.00,WUHU216HW,2013-05-25 16:47:00,
2013-05-25 10:52:00,51.2,32.9,30.00,NW,315,2.4,2.9,49,0.00,,,0.00,WUHU216HW,2013-05-25 16:52:00,
2013-05-25 10:57:00,50.1,32.3,30.00,NW,315,0.0,2.9,50,0.00,,,0.00,WUHU216HW,2013-05-25 16:57:00,
2013-05-25 11:02:00,50.0,33.0,30.00,NW,315,0.0,2.4,52,0.00,,,0.00,WUHU216HW,2013-05-25 17:02:00,
2013-05-25 11:07:00,49.8,32.4,30.00,NW,315,1.7,2.4,51,0.00,,,0.00,WUHU216HW,2013-05-25 17:07:00,
2013-05-25 11:12:00,50.3,33.4,30.00,NW,315,0.0,2.6,52,0.00,,,0.00,WUHU216HW,2013-05-25 17:12:00,
2013-05-25 11:17:00,50.1,34.1,30.00,NNW,338,2.2,3.3,53,0.00,,,0.00,WUHU216HW,2013-05-25 17:17:00,
2013-05-25 11:22:00,50.1,33.6,30.00,NNW,338,2.0,3.5,53,0.00,,,0.00,WUHU216HW,2013-05-25 17:22:00,
2013-05-25 11:27:00,51.4,34.2,30.00,West,270,0.0,3.5,52,0.00,,,0.00,WUHU216HW,2013-05-25 17:27:00,
2013-05-25 11:32:00,51.2,33.3,30.00,NW,315,0.0,0.0,50,0.00,,,0.00,WUHU216HW,2013-05-25 17:32:00,
2013-05-25 11:38:00,52.3,33.1,30.00,WSW,248,0.0,2.9,48,0.00,,,0.00,WUHU216HW,2013-05-25 17:38:00,
2013-05-25 11:43:00,52.5,33.8,30.00,WNW,293,1.7,2.9,49,0.00,,,0.00,WUHU216HW,2013-05-25 17:43:00,
2013-05-25 11:48:00,53.6,34.7,30.00,WNW,293,0.0,2.4,49,0.00,,,0.00,WUHU216HW,2013-05-25 17:48:00,
2013-05-25 11:53:00,54.3,33.8,29.99,WSW,248,0.0,1.5,46,0.00,,,0.00,WUHU216HW,2013-05-25 17:53:00,
2013-05-25 11:58:00,53.6,34.3,29.99,WNW,293,0.0,1.5,48,0.00,,,0.00,WUHU216HW,2013-05-25 17:58:00,
2013-05-25 12:03:00,52.7,33.4,29.99,North,0,0.0,3.5,48,0.00,,,0.00,WUHU216HW,2013-05-25 18:03:00,
2013-05-25 12:08:00,53.2,33.9,30.00,NNE,23,2.0,3.5,48,0.00,,,0.00,WUHU216HW,2013-05-25 18:08:00,
2013-05-25 12:13:00,53.2,32.8,30.00,East,90,0.0,2.6,47,0.00,,,0.00,WUHU216HW,2013-05-25 18:13:00,
2013-05-25 12:18:00,54.8,34.8,29.99,ENE,68,0.0,2.2,47,0.00,,,0.00,WUHU216HW,2013-05-25 18:18:00,
2013-05-25 12:23:00,55.2,33.5,29.99,ENE,68,0.0,0.0,44,0.00,,,0.00,WUHU216HW,2013-05-25 18:23:00,
2013-05-25 12:28:00,54.5,33.9,29.99,ENE,68,0.0,0.0,46,0.00,,,0.00,WUHU216HW,2013-05-25 18:28:00,
2013-05-25 12:33:00,53.9,32.9,29.99,NNE,23,0.0,4.6,46,0.00,,,0.00,WUHU216HW,2013-05-25 18:33:00,
2013-05-25 12:38:00,53.4,32.4,29.99,NE,45,3.3,6.0,45,0.00,,,0.00,WUHU216HW,2013-05-25 18:38:00,
2013-05-25 12:43:00,54.6,35.2,29.99,ENE,68,0.0,6.0,48,0.00,,,0.00,WUHU216HW,2013-05-25 18:43:00,
2013-05-25 12:48:00,54.1,33.1,29.99,ENE,68,3.3,4.6,45,0.00,,,0.00,WUHU216HW,2013-05-25 18:48:00,
2013-05-25 12:53:00,53.9,32.5,29.99,ENE,68,1.7,4.6,44,0.00,,,0.00,WUHU216HW,2013-05-25 18:53:00,
2013-05-25 12:58:00,53.0,32.1,29.99,ENE,68,0.8,3.3,45,0.00,,,0.00,WUHU216HW,2013-05-25 18:58:00,
2013-05-25 13:03:00,54.3,33.2,29.99,ENE,68,0.0,2.9,45,0.00,,,0.00,WUHU216HW,2013-05-25 19:03:00,
2013-05-25 13:08:00,56.3,32.8,29.99,South,180,0.0,2.0,41,0.00,,,0.00,WUHU216HW,2013-05-25 19:08:00,
2013-05-25 13:13:00,55.7,34.0,29.99,NNE,23,6.7,6.7,44,0.00,,,0.00,WUHU216HW,2013-05-25 19:13:00,
2013-05-25 13:18:00,53.7,32.4,29.99,NNW,338,1.5,6.7,45,0.00,,,0.00,WUHU216HW,2013-05-25 19:18:00,
2013-05-25 13:24:00,54.5,33.4,29.99,NNW,338,3.8,6.2,45,0.00,,,0.00,WUHU216HW,2013-05-25 19:24:00,
2013-05-25 13:29:00,54.5,33.4,29.99,NNW,338,2.4,6.2,45,0.00,,,0.00,WUHU216HW,2013-05-25 19:29:00,
2013-05-25 13:34:00,55.0,33.9,29.99,NNE,23,2.0,6.2,44,0.00,,,0.00,WUHU216HW,2013-05-25 19:34:00,
2013-05-25 13:39:00,55.0,33.3,29.99,NNE,23,4.4,5.8,44,0.00,,,0.00,WUHU216HW,2013-05-25 19:39:00,
2013-05-25 13:44:00,55.2,33.5,29.99,NNE,23,0.0,5.3,44,0.00,,,0.00,WUHU216HW,2013-05-25 19:44:00,
2013-05-25 13:49:00,56.3,35.0,29.99,NNW,338,0.0,1.5,45,0.00,,,0.00,WUHU216HW,2013-05-25 19:49:00,
2013-05-25 13:54:00,57.3,35.5,29.99,WSW,248,4.4,4.4,44,0.00,,,0.00,WUHU216HW,2013-05-25 19:54:00,
2013-05-25 13:59:00,57.0,35.2,30.00,NW,315,2.6,4.4,44,0.00,,,0.00,WUHU216HW,2013-05-25 19:59:00,
2013-05-25 14:04:00,57.5,35.7,29.99,West,270,0.0,2.6,44,0.00,,,0.00,WUHU216HW,2013-05-25 20:04:00,
2013-05-25 14:09:00,57.0,35.2,29.99,NNW,338,4.6,4.6,44,0.00,,,0.00,WUHU216HW,2013-05-25 20:09:00,
2013-05-25 14:14:00,56.1,34.3,29.99,NE,45,1.3,4.6,44,0.00,,,0.00,WUHU216HW,2013-05-25 20:14:00,
2013-05-25 14:19:00,55.7,34.0,29.99,NNE,23,0.0,3.1,44,0.00,,,0.00,WUHU216HW,2013-05-25 20:19:00,
2013-05-25 14:24:00,57.0,34.0,29.99,WNW,293,0.0,3.1,42,0.00,,,0.00,WUHU216HW,2013-05-25 20:24:00,
2013-05-25 14:29:00,56.1,34.9,29.99,NNE,23,9.1,9.1,45,0.00,,,0.00,WUHU216HW,2013-05-25 20:29:00,
2013-05-25 14:34:00,54.5,33.4,30.00,NNE,23,6.2,9.1,45,0.00,,,0.00,WUHU216HW,2013-05-25 20:34:00,
2013-05-25 14:39:00,54.1,33.1,30.00,North,0,5.3,8.5,46,0.00,,,0.00,WUHU216HW,2013-05-25 20:39:00,
2013-05-25 14:44:00,56.1,34.9,30.00,North,0,4.4,8.5,45,0.00,,,0.00,WUHU216HW,2013-05-25 20:44:00,
2013-05-25 14:49:00,57.0,35.7,30.00,NE,45,4.9,5.8,45,0.00,,,0.00,WUHU216HW,2013-05-25 20:49:00,
2013-05-25 14:54:00,55.9,34.1,30.00,NE,45,6.4,7.8,44,0.00,,,0.00,WUHU216HW,2013-05-25 20:54:00,
2013-05-25 14:59:00,55.9,34.1,30.00,WNW,293,0.0,7.8,44,0.00,,,0.00,WUHU216HW,2013-05-25 20:59:00,
2013-05-25 15:04:00,56.8,35.2,30.00,NNW,338,1.5,6.9,44,0.00,,,0.00,WUHU216HW,2013-05-25 21:04:00,
2013-05-25 15:09:00,56.3,36.2,30.00,NE,45,0.0,6.9,47,0.00,,,0.00,WUHU216HW,2013-05-25 21:09:00,
2013-05-25 15:14:00,59.0,36.4,30.00,North,0,1.5,6.4,43,0.00,,,0.00,WUHU216HW,2013-05-25 21:14:00,
2013-05-25 15:20:00,57.9,35.4,30.00,NW,315,1.1,6.4,43,0.00,,,0.00,WUHU216HW,2013-05-25 21:20:00,
2013-05-25 15:25:00,58.8,35.6,30.00,North,0,8.2,8.2,42,0.00,,,0.00,WUHU216HW,2013-05-25 21:25:00,
2013-05-25 15:30:00,58.4,37.0,30.00,WNW,293,0.0,8.2,45,0.00,,,0.00,WUHU216HW,2013-05-25 21:30:00,
2013-05-25 15:35:00,57.0,35.7,30.00,North,0,2.6,8.0,45,0.00,,,0.00,WUHU216HW,2013-05-25 21:35:00,
2013-05-25 15:40:00,58.1,36.7,30.00,North,0,1.7,8.0,45,0.00,,,0.00,WUHU216HW,2013-05-25 21:40:00,
2013-05-25 15:45:00,58.6,37.2,30.00,NNW,338,5.5,6.0,45,0.00,,,0.00,WUHU216HW,2013-05-25 21:45:00,
2013-05-25 15:50:00,57.3,36.1,30.00,NE,45,5.5,9.6,45,0.00,,,0.00,WUHU216HW,2013-05-25 21:50:00,
2013-05-25 15:55:00,56.4,34.7,30.00,NE,45,2.0,9.6,44,0.00,,,0.00,WUHU216HW,2013-05-25 21:55:00,
2013-05-25 16:00:00,57.0,35.2,30.00,NNE,23,6.0,7.1,44,0.00,,,0.00,WUHU216HW,2013-05-25 22:00:00,
2013-05-25 16:05:00,56.8,35.0,30.00,NNW,338,2.0,6.0,44,0.00,,,0.00,WUHU216HW,2013-05-25 22:05:00,
2013-05-25 16:10:00,58.1,35.6,30.00,NNW,338,0.0,7.3,43,0.00,,,0.00,WUHU216HW,2013-05-25 22:10:00,
2013-05-25 16:15:00,57.5,35.1,30.00,NNE,23,5.1,7.3,43,0.00,,,0.00,WUHU216HW,2013-05-25 22:15:00,
2013-05-25 16:21:00,58.6,34.9,30.00,North,0,4.4,8.9,41,0.00,,,0.00,WUHU216HW,2013-05-25 22:21:00,
2013-05-25 16:26:00,54.8,33.5,30.00,North,0,2.2,8.9,44,0.00,,,0.00,WUHU216HW,2013-05-25 22:26:00,
2013-05-25 16:31:00,53.7,33.3,30.00,NNW,338,3.1,6.2,46,0.00,,,0.00,WUHU216HW,2013-05-25 22:31:00,
2013-05-25 16:36:00,53.7,33.3,30.00,North,0,0.8,6.2,46,0.00,,,0.00,WUHU216HW,2013-05-25 22:36:00,
2013-05-25 16:41:00,55.0,33.9,30.01,NNE,23,0.0,3.3,45,0.00,,,0.00,WUHU216HW,2013-05-25 22:41:00,
2013-05-25 16:46:00,54.1,33.6,30.00,NNW,338,0.0,2.9,46,0.00,,,0.00,WUHU216HW,2013-05-25 22:46:00,
2013-05-25 16:51:00,54.1,33.5,30.00,NNW,338,2.2,2.9,46,0.00,,,0.00,WUHU216HW,2013-05-25 22:51:00,
2013-05-25 16:56:00,53.2,33.4,30.01,NNW,338,0.0,3.5,47,0.00,,,0.00,WUHU216HW,2013-05-25 22:56:00,
2013-05-25 17:01:00,53.4,33.5,30.00,North,0,0.0,3.5,47,0.00,,,0.00,WUHU216HW,2013-05-25 23:01:00,
2013-05-25 17:06:00,55.9,35.3,30.00,NW,315,4.2,4.2,46,0.00,,,0.00,WUHU216HW,2013-05-25 23:06:00,
2013-05-25 17:11:00,55.9,35.8,30.01,NNW,338,2.0,4.2,47,0.00,,,0.00,WUHU216HW,2013-05-25 23:11:00,
2013-05-25 17:16:00,55.9,34.7,30.00,NNW,338,4.0,4.0,45,0.00,,,0.00,WUHU216HW,2013-05-25 23:16:00,
2013-05-25 17:21:00,56.1,34.9,30.00,NNW,338,5.3,5.5,45,0.00,,,0.00,WUHU216HW,2013-05-25 23:21:00,
2013-05-25 17:26:00,56.1,34.9,30.00,NNE,23,0.0,5.5,45,0.00,,,0.00,WUHU216HW,2013-05-25 23:26:00,
2013-05-25 17:32:00,56.4,34.7,30.00,North,0,0.0,2.2,44,0.00,,,0.00,WUHU216HW,2013-05-25 23:32:00,
2013-05-25 17:37:00,56.1,34.3,30.00,NE,45,0.0,3.1,44,0.00,,,0.00,WUHU216HW,2013-05-25 23:37:00,
2013-05-25 17:42:00,55.5,34.4,30.00,ENE,68,0.0,3.1,45,0.00,,,0.00,WUHU216HW,2013-05-25 23:42:00,
2013-05-25 17:47:00,57.3,36.1,30.00,ENE,68,4.0,4.9,45,0.00,,,0.00,WUHU216HW,2013-05-25 23:47:00,
2013-05-25 17:52:00,57.0,35.2,30.01,NE,45,0.0,5.1,44,0.00,,,0.00,WUHU216HW,2013-05-25 23:52:00,
2013-05-25 17:57:00,59.9,37.3,30.00,ENE,68,1.1,5.1,44,0.00,,,0.00,WUHU216HW,2013-05-25 23:57:00,
2013-05-25 18:02:00,65.3,38.7,30.00,NE,45,2.4,7.6,38,0.00,,,0.00,WUHU216HW,2013-05-26 00:02:00,
2013-05-25 18:07:00,60.4,35.6,30.00,ESE,113,4.6,7.6,40,0.00,,,0.00,WUHU216HW,2013-05-26 00:07:00,
2013-05-25 18:12:00,59.5,35.1,30.00,NNE,23,5.1,8.0,40,0.00,,,0.00,WUHU216HW,2013-05-26 00:12:00,
2013-05-25 18:17:00,59.7,35.9,30.00,NNW,338,2.0,8.0,41,0.00,,,0.00,WUHU216HW,2013-05-26 00:17:00,
2013-05-25 18:22:00,57.9,34.3,30.00,NNE,23,5.1,10.0,41,0.00,,,0.00,WUHU216HW,2013-05-26 00:22:00,
2013-05-25 18:27:00,55.0,32.9,30.00,NNW,338,4.4,10.0,44,0.00,,,0.00,WUHU216HW,2013-05-26 00:27:00,
2013-05-25 18:33:00,55.0,33.3,30.01,NNE,23,5.5,7.6,44,0.00,,,0.00,WUHU216HW,2013-05-26 00:33:00,
2013-05-25 18:38:00,54.6,33.6,30.01,NNW,338,3.1,6.4,45,0.00,,,0.00,WUHU216HW,2013-05-26 00:38:00,
2013-05-25 18:43:00,55.0,34.4,30.01,NE,45,2.6,3.8,46,0.00,,,0.00,WUHU216HW,2013-05-26 00:43:00,
2013-05-25 18:48:00,54.5,33.9,30.01,NNW,338,0.0,4.2,46,0.00,,,0.00,WUHU216HW,2013-05-26 00:48:00,
2013-05-25 18:53:00,55.2,34.0,30.00,North,0,3.1,4.2,45,0.00,,,0.00,WUHU216HW,2013-05-26 00:53:00,
2013-05-25 18:58:00,55.2,34.0,30.01,NNW,338,0.0,3.1,45,0.00,,,0.00,WUHU216HW,2013-05-26 00:58:00,
2013-05-25 19:03:00,60.4,37.7,30.01,NW,315,0.0,2.4,43,0.00,,,0.00,WUHU216HW,2013-05-26 01:03:00,
2013-05-25 19:08:00,58.2,35.2,30.01,North,0,2.4,3.1,43,0.00,,,0.00,WUHU216HW,2013-05-26 01:08:00,
2013-05-25 19:13:00,55.9,34.9,30.00,NNE,23,3.8,8.2,44,0.00,,,0.00,WUHU216HW,2013-05-26 01:13:00,
2013-05-25 19:18:00,55.7,34.0,30.01,NNE,23,2.9,8.2,44,0.00,,,0.00,WUHU216HW,2013-05-26 01:18:00,
2013-05-25 19:23:00,55.2,33.5,30.01,NNE,23,1.1,6.9,44,0.00,,,0.00,WUHU216HW,2013-05-26 01:23:00,
2013-05-25 19:28:00,54.6,33.6,30.00,NNE,23,3.3,6.9,45,0.00,,,0.00,WUHU216HW,2013-05-26 01:28:00,
2013-05-25 19:33:00,54.6,34.3,30.00,NE,45,0.0,6.4,46,0.00,,,0.00,WUHU216HW,2013-05-26 01:33:00,
2013-05-25 19:38:00,62.2,36.8,30.01,NNE,23,6.2,6.7,39,0.00,,,0.00,WUHU216HW,2013-05-26 01:38:00,
2013-05-25 19:43:00,56.3,33.4,30.00,NNE,23,6.2,8.0,42,0.00,,,0.00,WUHU216HW,2013-05-26 01:43:00,
2013-05-25 19:49:00,54.1,32.5,30.00,North,0,2.2,8.0,44,0.00,,,0.00,WUHU216HW,2013-05-26 01:49:00,
2013-05-25 19:54:00,59.5,35.6,30.00,NNW,338,3.1,4.6,41,0.00,,,0.00,WUHU216HW,2013-05-26 01:54:00,
2013-05-25 19:58:00,59.3,35.0,30.00,NE,45,3.8,6.2,40,0.00,,,0.00,WUHU216HW,2013-05-26 01:58:00,
2013-05-25 20:03:00,57.3,33.2,30.00,North,0,0.4,6.2,40,0.00,,,0.00,WUHU216HW,2013-05-26 02:03:00,
2013-05-25 20:09:00,55.4,32.5,30.01,NNW,338,0.6,5.8,42,0.00,,,0.00,WUHU216HW,2013-05-26 02:09:00,
2013-05-25 20:14:00,54.8,32.6,30.00,NNE,23,5.8,6.0,43,0.00,,,0.00,WUHU216HW,2013-05-26 02:14:00,
2013-05-25 20:19:00,53.9,32.3,30.00,North,0,4.6,6.2,44,0.00,,,0.00,WUHU216HW,2013-05-26 02:19:00,
2013-05-25 20:24:00,53.4,32.4,30.00,NNW,338,0.0,6.2,45,0.00,,,0.00,WUHU216HW,2013-05-26 02:24:00,
2013-05-25 20:29:00,52.8,31.9,30.00,NNE,23,0.0,5.8,45,0.00,,,0.00,WUHU216HW,2013-05-26 02:29:00,
2013-05-25 20:34:00,52.7,32.3,30.00,North,0,0.0,5.8,46,0.00,,,0.00,WUHU216HW,2013-05-26 02:34:00,
2013-05-25 20:39:00,52.3,32.0,30.01,NNW,338,3.3,4.9,46,0.00,,,0.00,WUHU216HW,2013-05-26 02:39:00,
2013-05-25 20:44:00,51.4,31.8,30.01,NNW,338,0.0,4.9,47,0.00,,,0.00,WUHU216HW,2013-05-26 02:44:00,
2013-05-25 20:49:00,50.7,32.2,30.01,NNW,338,0.0,1.1,49,0.00,,,0.00,WUHU216HW,2013-05-26 02:49:00,
2013-05-25 20:54:00,50.1,31.7,30.00,NNW,338,0.0,0.0,49,0.00,,,0.00,WUHU216HW,2013-05-26 02:54:00,
2013-05-25 20:59:00,49.6,31.8,30.01,NNW,338,0.0,0.0,50,0.00,,,0.00,WUHU216HW,2013-05-26 02:59:00,
2013-05-25 21:04:00,48.7,31.3,30.00,NW,315,0.0,0.0,51,0.00,,,0.00,WUHU216HW,2013-05-26 03:04:00,
2013-05-25 21:09:00,48.7,31.8,30.00,WNW,293,0.0,0.0,52,0.00,,,0.00,WUHU216HW,2013-05-26 03:09:00,
2013-05-25 21:15:00,48.7,31.3,30.00,West,270,0.0,2.4,51,0.00,,,0.00,WUHU216HW,2013-05-26 03:15:00,
2013-05-25 21:20:00,48.3,31.0,30.01,West,270,1.1,2.4,51,0.00,,,0.00,WUHU216HW,2013-05-26 03:20:00,
2013-05-25 21:25:00,48.0,31.1,30.01,West,270,0.0,2.4,52,0.00,,,0.00,WUHU216HW,2013-05-26 03:25:00,
2013-05-25 21:30:00,48.0,31.1,30.01,West,270,0.0,2.4,52,0.00,,,0.00,WUHU216HW,2013-05-26 03:30:00,
2013-05-25 21:35:00,47.3,30.4,30.00,West,270,0.0,2.6,52,0.00,,,0.00,WUHU216HW,2013-05-26 03:35:00,
2013-05-25 21:40:00,47.1,31.2,30.00,West,270,0.0,2.6,54,0.00,,,0.00,WUHU216HW,2013-05-26 03:40:00,
2013-05-25 21:45:00,46.7,31.8,30.01,WNW,293,0.0,1.3,56,0.00,,,0.00,WUHU216HW,2013-05-26 03:45:00,
2013-05-25 21:50:00,46.2,31.7,30.01,WNW,293,0.0,1.3,57,0.00,,,0.00,WUHU216HW,2013-05-26 03:50:00,
2013-05-25 21:55:00,45.6,31.2,30.01,WNW,293,0.0,0.0,57,0.00,,,0.00,WUHU216HW,2013-05-26 03:55:00,
2013-05-25 22:00:00,45.5,32.0,30.01,WNW,293,0.0,0.0,59,0.00,,,0.00,WUHU216HW,2013-05-26 04:00:00,
2013-05-25 22:01:00,45.5,32.0,30.01,WNW,293,0.0,0.0,59,0.00,,,0.00,WUHU216HW,2013-05-26 04:01:00,
2013-05-25 22:02:00,45.3,31.8,30.01,WNW,293,0.0,0.0,59,0.00,,,0.00,WUHU216HW,2013-05-26 04:02:00,
2013-05-25 22:07:00,45.1,32.5,30.01,West,270,0.0,1.3,60,0.00,,,0.00,WUHU216HW,2013-05-26 04:07:00,
2013-05-25 22:12:00,45.1,32.1,30.02,West,270,0.0,1.3,60,0.00,,,0.00,WUHU216HW,2013-05-26 04:12:00,
2013-05-25 22:18:00,45.1,32.1,30.01,West,270,0.0,0.0,60,0.00,,,0.00,WUHU216HW,2013-05-26 04:18:00,
2013-05-25 22:23:00,45.1,32.1,30.01,West,270,0.0,0.0,60,0.00,,,0.00,WUHU216HW,2013-05-26 04:23:00,
2013-05-25 22:28:00,44.9,31.9,30.01,West,270,2.2,2.6,61,0.00,,,0.00,WUHU216HW,2013-05-26 04:28:00,
2013-05-25 22:33:00,45.1,32.1,30.01,WSW,248,2.9,2.9,60,0.00,,,0.00,WUHU216HW,2013-05-26 04:33:00,
2013-05-25 22:38:00,45.3,32.2,30.01,WSW,248,2.4,2.9,60,0.00,,,0.00,WUHU216HW,2013-05-26 04:38:00,
2013-05-25 22:43:00,45.1,32.5,30.01,WSW,248,0.6,2.6,61,0.00,,,0.00,WUHU216HW,2013-05-26 04:43:00,
2013-05-25 22:48:00,44.9,31.9,30.01,WSW,248,0.0,2.4,60,0.00,,,0.00,WUHU216HW,2013-05-26 04:48:00,
2013-05-25 22:53:00,44.6,31.4,30.01,WSW,248,0.0,0.0,61,0.00,,,0.00,WUHU216HW,2013-05-26 04:53:00,
2013-05-25 22:58:00,44.2,31.6,30.01,WSW,248,0.0,0.0,61,0.00,,,0.00,WUHU216HW,2013-05-26 04:58:00,
2013-05-25 23:03:00,43.3,31.5,30.01,WSW,248,0.0,0.0,63,0.00,,,0.00,WUHU216HW,2013-05-26 05:03:00,
2013-05-25 23:08:00,42.0,31.1,30.01,WSW,248,0.0,0.0,65,0.00,,,0.00,WUHU216HW,2013-05-26 05:08:00,
2013-05-25 23:13:00,41.3,30.9,30.01,WSW,248,0.0,0.0,66,0.00,,,0.00,WUHU216HW,2013-05-26 05:13:00,
2013-05-25 23:18:00,41.3,30.8,30.01,WSW,248,0.0,0.0,66,0.00,,,0.00,WUHU216HW,2013-05-26 05:18:00,
2013-05-25 23:23:00,41.0,30.4,30.01,WSW,248,0.0,0.0,66,0.00,,,0.00,WUHU216HW,2013-05-26 05:23:00,
2013-05-25 23:28:00,40.4,29.9,30.01,WSW,248,0.0,0.0,66,0.00,,,0.00,WUHU216HW,2013-05-26 05:28:00,
2013-05-25 23:34:00,39.9,30.1,30.01,WSW,248,0.0,0.0,68,0.00,,,0.00,WUHU216HW,2013-05-26 05:34:00,
2013-05-25 23:38:00,39.7,31.0,30.01,WSW,248,0.0,0.0,71,0.00,,,0.00,WUHU216HW,2013-05-26 05:38:00,
2013-05-25 23:44:00,39.7,30.7,30.02,WNW,293,0.0,0.0,70,0.00,,,0.00,WUHU216HW,2013-05-26 05:44:00,
2013-05-25 23:49:00,38.8,30.5,30.02,West,270,0.0,0.0,72,0.00,,,0.00,WUHU216HW,2013-05-26 05:49:00,
2013-05-25 23:54:00,38.4,30.2,30.02,West,270,0.0,0.0,72,0.00,,,0.00,WUHU216HW,2013-05-26 05:54:00,
2013-05-25 23:59:00,38.8,30.8,30.02,West,270,0.0,0.0,73,0.00,,,0.00,WUHU216HW,2013-05-26 05:59:00,